sensor_id;sensor_type;location;lat;lon;timestamp;P1;durP1;ratioP1;P2;durP2;ratioP2
73959;SDS011;62316;48.920;2.342;2024-01-30T00:01:59;28.50;;;27.50;;
73959;SDS011;62316;48.920;2.342;2024-01-30T00:04:24;36.25;;;29.00;;
73959;SDS011;62316;48.920;2.342;2024-01-30T00:06:50;38.75;;;31.75;;
73959;SDS011;62316;48.920;2.342;2024-01-30T00:09:16;27.25;;;25.50;;
73959;SDS011;62316;48.920;2.342;2024-01-30T00:11:41;28.25;;;25.50;;
73959;SDS011;62316;48.920;2.342;2024-01-30T00:14:06;32.75;;;30.00;;
73959;SDS011;62316;48.920;2.342;2024-01-30T00:16:31;32.25;;;29.00;;
73959;SDS011;62316;48.920;2.342;2024-01-30T00:18:57;31.00;;;29.25;;
73959;SDS011;62316;48.920;2.342;2024-01-30T00:21:22;30.50;;;29.25;;
73959;SDS011;62316;48.920;2.342;2024-01-30T00:23:47;34.00;;;33.00;;
73959;SDS011;62316;48.920;2.342;2024-01-30T00:26:15;28.25;;;25.75;;
73959;SDS011;62316;48.920;2.342;2024-01-30T00:28:43;33.00;;;31.50;;
73959;SDS011;62316;48.920;2.342;2024-01-30T00:31:08;34.25;;;29.25;;
73959;SDS011;62316;48.920;2.342;2024-01-30T00:33:37;30.50;;;27.75;;
73959;SDS011;62316;48.920;2.342;2024-01-30T00:36:02;31.75;;;31.00;;
73959;SDS011;62316;48.920;2.342;2024-01-30T00:38:28;34.25;;;31.25;;
73959;SDS011;62316;48.920;2.342;2024-01-30T00:40:53;35.00;;;30.50;;
73959;SDS011;62316;48.920;2.342;2024-01-30T00:43:18;29.25;;;28.25;;
73959;SDS011;62316;48.920;2.342;2024-01-30T00:45:44;30.75;;;28.75;;
73959;SDS011;62316;48.920;2.342;2024-01-30T00:48:10;31.00;;;28.75;;
73959;SDS011;62316;48.920;2.342;2024-01-30T00:50:35;26.25;;;24.50;;
73959;SDS011;62316;48.920;2.342;2024-01-30T00:53:00;26.75;;;21.75;;
73959;SDS011;62316;48.920;2.342;2024-01-30T00:55:25;33.75;;;29.25;;
73959;SDS011;62316;48.920;2.342;2024-01-30T00:57:53;38.25;;;32.00;;
73959;SDS011;62316;48.920;2.342;2024-01-30T01:00:18;35.50;;;29.75;;
73959;SDS011;62316;48.920;2.342;2024-01-30T01:02:43;31.75;;;28.50;;
73959;SDS011;62316;48.920;2.342;2024-01-30T01:05:09;25.25;;;25.25;;
73959;SDS011;62316;48.920;2.342;2024-01-30T01:07:34;26.75;;;26.75;;
73959;SDS011;62316;48.920;2.342;2024-01-30T01:10:02;33.25;;;30.25;;
73959;SDS011;62316;48.920;2.342;2024-01-30T01:12:27;29.00;;;29.00;;
73959;SDS011;62316;48.920;2.342;2024-01-30T01:14:53;31.25;;;28.50;;
73959;SDS011;62316;48.920;2.342;2024-01-30T01:17:18;31.75;;;25.50;;
73959;SDS011;62316;48.920;2.342;2024-01-30T01:19:46;37.25;;;30.50;;
73959;SDS011;62316;48.920;2.342;2024-01-30T01:22:11;29.25;;;27.25;;
73959;SDS011;62316;48.920;2.342;2024-01-30T01:24:36;26.75;;;26.75;;
73959;SDS011;62316;48.920;2.342;2024-01-30T01:27:02;18.50;;;16.50;;
73959;SDS011;62316;48.920;2.342;2024-01-30T01:29:27;28.00;;;25.00;;
73959;SDS011;62316;48.920;2.342;2024-01-30T01:31:56;28.75;;;27.00;;
73959;SDS011;62316;48.920;2.342;2024-01-30T01:34:21;31.00;;;28.75;;
73959;SDS011;62316;48.920;2.342;2024-01-30T01:36:46;27.50;;;26.25;;
73959;SDS011;62316;48.920;2.342;2024-01-30T01:39:11;29.75;;;28.75;;
73959;SDS011;62316;48.920;2.342;2024-01-30T01:41:37;37.00;;;32.25;;
73959;SDS011;62316;48.920;2.342;2024-01-30T01:44:19;29.75;;;25.50;;
73959;SDS011;62316;48.920;2.342;2024-01-30T01:46:51;33.25;;;27.00;;
73959;SDS011;62316;48.920;2.342;2024-01-30T01:49:16;26.00;;;26.00;;
73959;SDS011;62316;48.920;2.342;2024-01-30T01:51:42;34.00;;;31.50;;
73959;SDS011;62316;48.920;2.342;2024-01-30T01:54:09;25.75;;;24.00;;
73959;SDS011;62316;48.920;2.342;2024-01-30T01:56:35;30.50;;;27.00;;
73959;SDS011;62316;48.920;2.342;2024-01-30T01:59:04;31.00;;;26.75;;
73959;SDS011;62316;48.920;2.342;2024-01-30T02:01:30;28.00;;;25.00;;
73959;SDS011;62316;48.920;2.342;2024-01-30T02:03:56;31.75;;;28.00;;
73959;SDS011;62316;48.920;2.342;2024-01-30T02:06:28;26.25;;;24.25;;
73959;SDS011;62316;48.920;2.342;2024-01-30T02:08:53;31.00;;;28.00;;
73959;SDS011;62316;48.920;2.342;2024-01-30T02:11:22;28.25;;;25.25;;
73959;SDS011;62316;48.920;2.342;2024-01-30T02:13:48;24.25;;;23.50;;
73959;SDS011;62316;48.920;2.342;2024-01-30T02:16:13;26.25;;;25.25;;
73959;SDS011;62316;48.920;2.342;2024-01-30T02:18:38;34.25;;;31.50;;
73959;SDS011;62316;48.920;2.342;2024-01-30T02:21:08;28.50;;;26.50;;
73959;SDS011;62316;48.920;2.342;2024-01-30T02:23:33;28.50;;;25.25;;
73959;SDS011;62316;48.920;2.342;2024-01-30T02:26:02;25.25;;;23.50;;
73959;SDS011;62316;48.920;2.342;2024-01-30T02:28:29;26.50;;;23.00;;
73959;SDS011;62316;48.920;2.342;2024-01-30T02:31:10;32.75;;;29.00;;
73959;SDS011;62316;48.920;2.342;2024-01-30T02:33:52;26.25;;;24.75;;
73959;SDS011;62316;48.920;2.342;2024-01-30T02:36:17;27.50;;;25.00;;
73959;SDS011;62316;48.920;2.342;2024-01-30T02:38:43;24.75;;;24.00;;
73959;SDS011;62316;48.920;2.342;2024-01-30T02:41:08;22.00;;;22.00;;
73959;SDS011;62316;48.920;2.342;2024-01-30T02:43:34;24.50;;;21.75;;
73959;SDS011;62316;48.920;2.342;2024-01-30T02:45:59;25.75;;;25.50;;
73959;SDS011;62316;48.920;2.342;2024-01-30T02:51:40;21.75;;;18.75;;
73959;SDS011;62316;48.920;2.342;2024-01-30T02:54:15;28.50;;;25.00;;
73959;SDS011;62316;48.920;2.342;2024-01-30T02:56:46;26.00;;;23.75;;
73959;SDS011;62316;48.920;2.342;2024-01-30T02:59:12;22.00;;;22.00;;
73959;SDS011;62316;48.920;2.342;2024-01-30T03:01:42;17.00;;;17.00;;
73959;SDS011;62316;48.920;2.342;2024-01-30T03:04:07;20.00;;;19.50;;
73959;SDS011;62316;48.920;2.342;2024-01-30T03:06:33;17.25;;;16.50;;
73959;SDS011;62316;48.920;2.342;2024-01-30T03:09:06;23.00;;;20.25;;
73959;SDS011;62316;48.920;2.342;2024-01-30T03:11:34;24.00;;;19.50;;
73959;SDS011;62316;48.920;2.342;2024-01-30T03:13:59;24.25;;;21.00;;
73959;SDS011;62316;48.920;2.342;2024-01-30T03:16:24;22.00;;;19.75;;
73959;SDS011;62316;48.920;2.342;2024-01-30T03:18:50;19.50;;;17.25;;
73959;SDS011;62316;48.920;2.342;2024-01-30T03:21:15;23.25;;;19.50;;
73959;SDS011;62316;48.920;2.342;2024-01-30T03:23:40;20.75;;;19.00;;
73959;SDS011;62316;48.920;2.342;2024-01-30T03:26:12;15.75;;;14.75;;
73959;SDS011;62316;48.920;2.342;2024-01-30T03:28:44;22.00;;;18.00;;
73959;SDS011;62316;48.920;2.342;2024-01-30T03:31:09;21.50;;;18.00;;
73959;SDS011;62316;48.920;2.342;2024-01-30T03:33:34;20.50;;;18.25;;
73959;SDS011;62316;48.920;2.342;2024-01-30T03:36:04;24.50;;;20.00;;
73959;SDS011;62316;48.920;2.342;2024-01-30T03:38:30;19.25;;;19.25;;
73959;SDS011;62316;48.920;2.342;2024-01-30T03:40:57;20.50;;;18.50;;
73959;SDS011;62316;48.920;2.342;2024-01-30T03:43:22;18.25;;;16.25;;
73959;SDS011;62316;48.920;2.342;2024-01-30T03:45:47;21.50;;;18.25;;
73959;SDS011;62316;48.920;2.342;2024-01-30T03:48:13;14.50;;;14.50;;
73959;SDS011;62316;48.920;2.342;2024-01-30T03:50:38;17.25;;;16.00;;
73959;SDS011;62316;48.920;2.342;2024-01-30T03:53:03;18.75;;;17.00;;
73959;SDS011;62316;48.920;2.342;2024-01-30T03:55:29;18.75;;;17.75;;
73959;SDS011;62316;48.920;2.342;2024-01-30T03:57:54;16.75;;;15.75;;
73959;SDS011;62316;48.920;2.342;2024-01-30T04:00:19;23.75;;;18.25;;
73959;SDS011;62316;48.920;2.342;2024-01-30T04:02:44;14.00;;;14.00;;
73959;SDS011;62316;48.920;2.342;2024-01-30T04:05:10;13.25;;;12.00;;
73959;SDS011;62316;48.920;2.342;2024-01-30T04:07:35;13.25;;;12.25;;
73959;SDS011;62316;48.920;2.342;2024-01-30T04:10:00;18.00;;;17.75;;
73959;SDS011;62316;48.920;2.342;2024-01-30T04:12:26;14.00;;;14.00;;
73959;SDS011;62316;48.920;2.342;2024-01-30T04:14:51;17.50;;;15.25;;
73959;SDS011;62316;48.920;2.342;2024-01-30T04:17:16;18.50;;;13.00;;
73959;SDS011;62316;48.920;2.342;2024-01-30T04:19:41;17.00;;;16.00;;
73959;SDS011;62316;48.920;2.342;2024-01-30T04:22:06;15.00;;;13.50;;
73959;SDS011;62316;48.920;2.342;2024-01-30T04:24:32;18.67;;;16.33;;
73959;SDS011;62316;48.920;2.342;2024-01-30T04:26:57;19.33;;;16.67;;
73959;SDS011;62316;48.920;2.342;2024-01-30T04:29:22;19.50;;;15.25;;
73959;SDS011;62316;48.920;2.342;2024-01-30T04:31:47;16.50;;;15.50;;
73959;SDS011;62316;48.920;2.342;2024-01-30T04:34:12;23.50;;;21.00;;
73959;SDS011;62316;48.920;2.342;2024-01-30T04:36:38;18.25;;;14.25;;
73959;SDS011;62316;48.920;2.342;2024-01-30T04:39:03;17.75;;;16.50;;
73959;SDS011;62316;48.920;2.342;2024-01-30T04:41:28;17.50;;;14.50;;
73959;SDS011;62316;48.920;2.342;2024-01-30T04:43:56;20.00;;;18.75;;
73959;SDS011;62316;48.920;2.342;2024-01-30T04:46:21;22.00;;;14.50;;
73959;SDS011;62316;48.920;2.342;2024-01-30T04:48:49;14.75;;;13.75;;
73959;SDS011;62316;48.920;2.342;2024-01-30T04:51:15;16.00;;;12.75;;
73959;SDS011;62316;48.920;2.342;2024-01-30T04:53:40;19.50;;;19.50;;
73959;SDS011;62316;48.920;2.342;2024-01-30T04:56:05;14.75;;;12.75;;
73959;SDS011;62316;48.920;2.342;2024-01-30T04:58:31;19.25;;;17.75;;
73959;SDS011;62316;48.920;2.342;2024-01-30T05:00:56;20.50;;;18.50;;
73959;SDS011;62316;48.920;2.342;2024-01-30T05:03:21;16.25;;;15.50;;
73959;SDS011;62316;48.920;2.342;2024-01-30T05:05:48;16.50;;;16.50;;
73959;SDS011;62316;48.920;2.342;2024-01-30T05:08:13;15.75;;;15.75;;
73959;SDS011;62316;48.920;2.342;2024-01-30T05:10:38;21.25;;;18.00;;
73959;SDS011;62316;48.920;2.342;2024-01-30T05:13:03;21.75;;;16.75;;
73959;SDS011;62316;48.920;2.342;2024-01-30T05:15:29;19.50;;;17.50;;
73959;SDS011;62316;48.920;2.342;2024-01-30T05:17:54;17.25;;;16.75;;
73959;SDS011;62316;48.920;2.342;2024-01-30T05:20:20;27.00;;;23.00;;
73959;SDS011;62316;48.920;2.342;2024-01-30T05:22:45;21.00;;;19.25;;
73959;SDS011;62316;48.920;2.342;2024-01-30T05:25:12;24.00;;;22.50;;
73959;SDS011;62316;48.920;2.342;2024-01-30T05:27:37;25.75;;;23.50;;
73959;SDS011;62316;48.920;2.342;2024-01-30T05:30:02;19.25;;;18.00;;
73959;SDS011;62316;48.920;2.342;2024-01-30T05:32:28;28.75;;;22.00;;
73959;SDS011;62316;48.920;2.342;2024-01-30T05:34:53;20.00;;;16.75;;
73959;SDS011;62316;48.920;2.342;2024-01-30T05:37:18;20.00;;;16.00;;
73959;SDS011;62316;48.920;2.342;2024-01-30T05:39:44;20.25;;;18.75;;
73959;SDS011;62316;48.920;2.342;2024-01-30T05:42:09;19.00;;;16.50;;
73959;SDS011;62316;48.920;2.342;2024-01-30T05:44:35;19.75;;;18.50;;
73959;SDS011;62316;48.920;2.342;2024-01-30T05:47:00;13.00;;;13.00;;
73959;SDS011;62316;48.920;2.342;2024-01-30T05:49:25;12.75;;;12.75;;
73959;SDS011;62316;48.920;2.342;2024-01-30T05:51:50;19.75;;;17.00;;
73959;SDS011;62316;48.920;2.342;2024-01-30T05:54:15;12.00;;;12.00;;
73959;SDS011;62316;48.920;2.342;2024-01-30T05:56:41;16.25;;;15.25;;
73959;SDS011;62316;48.920;2.342;2024-01-30T05:59:06;18.50;;;14.50;;
73959;SDS011;62316;48.920;2.342;2024-01-30T06:01:31;13.33;;;13.33;;
73959;SDS011;62316;48.920;2.342;2024-01-30T06:03:57;15.00;;;13.75;;
73959;SDS011;62316;48.920;2.342;2024-01-30T06:06:22;13.00;;;11.75;;
73959;SDS011;62316;48.920;2.342;2024-01-30T06:08:47;17.75;;;15.25;;
73959;SDS011;62316;48.920;2.342;2024-01-30T06:11:12;15.00;;;11.50;;
73959;SDS011;62316;48.920;2.342;2024-01-30T06:13:38;12.75;;;12.75;;
73959;SDS011;62316;48.920;2.342;2024-01-30T06:16:03;17.25;;;14.00;;
73959;SDS011;62316;48.920;2.342;2024-01-30T06:18:28;13.00;;;13.00;;
73959;SDS011;62316;48.920;2.342;2024-01-30T06:20:55;12.50;;;11.50;;
73959;SDS011;62316;48.920;2.342;2024-01-30T06:23:20;14.50;;;13.25;;
73959;SDS011;62316;48.920;2.342;2024-01-30T06:25:46;19.50;;;19.50;;
73959;SDS011;62316;48.920;2.342;2024-01-30T06:28:11;16.75;;;14.00;;
73959;SDS011;62316;48.920;2.342;2024-01-30T06:30:36;13.50;;;13.00;;
73959;SDS011;62316;48.920;2.342;2024-01-30T06:33:02;16.50;;;14.50;;
73959;SDS011;62316;48.920;2.342;2024-01-30T06:35:27;17.25;;;13.25;;
73959;SDS011;62316;48.920;2.342;2024-01-30T06:37:53;17.50;;;16.50;;
73959;SDS011;62316;48.920;2.342;2024-01-30T06:40:19;12.00;;;12.00;;
73959;SDS011;62316;48.920;2.342;2024-01-30T06:42:44;17.50;;;13.75;;
73959;SDS011;62316;48.920;2.342;2024-01-30T06:45:09;27.00;;;21.00;;
73959;SDS011;62316;48.920;2.342;2024-01-30T06:47:34;16.50;;;15.75;;
73959;SDS011;62316;48.920;2.342;2024-01-30T06:50:00;15.00;;;14.00;;
73959;SDS011;62316;48.920;2.342;2024-01-30T06:52:27;15.67;;;13.33;;
73959;SDS011;62316;48.920;2.342;2024-01-30T06:54:54;15.00;;;14.33;;
73959;SDS011;62316;48.920;2.342;2024-01-30T06:57:19;14.50;;;14.00;;
73959;SDS011;62316;48.920;2.342;2024-01-30T06:59:45;17.25;;;14.00;;
73959;SDS011;62316;48.920;2.342;2024-01-30T07:02:10;17.25;;;15.50;;
73959;SDS011;62316;48.920;2.342;2024-01-30T07:04:37;18.50;;;15.50;;
73959;SDS011;62316;48.920;2.342;2024-01-30T07:07:03;25.25;;;21.25;;
73959;SDS011;62316;48.920;2.342;2024-01-30T07:09:29;25.50;;;23.00;;
73959;SDS011;62316;48.920;2.342;2024-01-30T07:11:55;17.67;;;14.00;;
73959;SDS011;62316;48.920;2.342;2024-01-30T07:14:20;16.00;;;15.75;;
73959;SDS011;62316;48.920;2.342;2024-01-30T07:16:45;16.50;;;15.00;;
73959;SDS011;62316;48.920;2.342;2024-01-30T07:19:11;18.50;;;16.00;;
73959;SDS011;62316;48.920;2.342;2024-01-30T07:21:36;19.50;;;15.00;;
73959;SDS011;62316;48.920;2.342;2024-01-30T07:24:01;21.75;;;19.00;;
73959;SDS011;62316;48.920;2.342;2024-01-30T07:26:27;22.00;;;19.25;;
73959;SDS011;62316;48.920;2.342;2024-01-30T07:28:53;16.75;;;15.75;;
73959;SDS011;62316;48.920;2.342;2024-01-30T07:31:18;18.25;;;16.00;;
73959;SDS011;62316;48.920;2.342;2024-01-30T07:33:45;15.00;;;14.00;;
73959;SDS011;62316;48.920;2.342;2024-01-30T07:36:11;26.25;;;22.00;;
73959;SDS011;62316;48.920;2.342;2024-01-30T07:38:36;17.50;;;15.75;;
73959;SDS011;62316;48.920;2.342;2024-01-30T07:41:01;22.75;;;19.00;;
73959;SDS011;62316;48.920;2.342;2024-01-30T07:43:26;21.25;;;19.00;;
73959;SDS011;62316;48.920;2.342;2024-01-30T07:45:52;16.00;;;16.00;;
73959;SDS011;62316;48.920;2.342;2024-01-30T07:48:17;18.50;;;16.00;;
73959;SDS011;62316;48.920;2.342;2024-01-30T07:50:42;20.75;;;15.75;;
73959;SDS011;62316;48.920;2.342;2024-01-30T07:53:07;21.25;;;21.25;;
73959;SDS011;62316;48.920;2.342;2024-01-30T07:55:33;21.00;;;17.75;;
73959;SDS011;62316;48.920;2.342;2024-01-30T07:57:59;20.25;;;19.00;;
73959;SDS011;62316;48.920;2.342;2024-01-30T08:00:25;18.33;;;15.00;;
73959;SDS011;62316;48.920;2.342;2024-01-30T08:02:53;21.75;;;20.50;;
73959;SDS011;62316;48.920;2.342;2024-01-30T08:05:21;20.75;;;18.25;;
73959;SDS011;62316;48.920;2.342;2024-01-30T08:07:48;21.75;;;18.25;;
73959;SDS011;62316;48.920;2.342;2024-01-30T08:10:14;20.25;;;14.75;;
73959;SDS011;62316;48.920;2.342;2024-01-30T08:12:39;21.75;;;19.25;;
73959;SDS011;62316;48.920;2.342;2024-01-30T08:15:04;21.75;;;19.50;;
73959;SDS011;62316;48.920;2.342;2024-01-30T08:17:30;17.00;;;15.00;;
73959;SDS011;62316;48.920;2.342;2024-01-30T08:19:55;17.25;;;16.25;;
73959;SDS011;62316;48.920;2.342;2024-01-30T08:22:20;22.75;;;18.50;;
73959;SDS011;62316;48.920;2.342;2024-01-30T08:24:45;22.00;;;20.50;;
73959;SDS011;62316;48.920;2.342;2024-01-30T08:27:10;22.75;;;15.00;;
73959;SDS011;62316;48.920;2.342;2024-01-30T08:29:37;23.75;;;16.50;;
73959;SDS011;62316;48.920;2.342;2024-01-30T08:32:02;20.75;;;19.25;;
73959;SDS011;62316;48.920;2.342;2024-01-30T08:34:27;17.75;;;15.75;;
73959;SDS011;62316;48.920;2.342;2024-01-30T08:36:52;19.00;;;17.25;;
73959;SDS011;62316;48.920;2.342;2024-01-30T08:39:18;20.50;;;19.00;;
73959;SDS011;62316;48.920;2.342;2024-01-30T08:41:43;25.50;;;20.00;;
73959;SDS011;62316;48.920;2.342;2024-01-30T08:44:08;21.75;;;17.25;;
73959;SDS011;62316;48.920;2.342;2024-01-30T08:46:35;19.25;;;17.00;;
73959;SDS011;62316;48.920;2.342;2024-01-30T08:49:01;20.75;;;19.00;;
73959;SDS011;62316;48.920;2.342;2024-01-30T08:51:26;22.50;;;15.75;;
73959;SDS011;62316;48.920;2.342;2024-01-30T08:53:51;18.25;;;16.00;;
73959;SDS011;62316;48.920;2.342;2024-01-30T08:56:17;22.00;;;20.25;;
73959;SDS011;62316;48.920;2.342;2024-01-30T08:58:43;17.00;;;17.00;;
73959;SDS011;62316;48.920;2.342;2024-01-30T09:01:08;20.00;;;15.00;;
73959;SDS011;62316;48.920;2.342;2024-01-30T09:03:34;19.75;;;17.25;;
73959;SDS011;62316;48.920;2.342;2024-01-30T09:05:59;27.25;;;24.75;;
73959;SDS011;62316;48.920;2.342;2024-01-30T09:08:24;20.50;;;16.50;;
73959;SDS011;62316;48.920;2.342;2024-01-30T09:10:50;20.00;;;18.00;;
73959;SDS011;62316;48.920;2.342;2024-01-30T09:13:15;18.25;;;15.50;;
73959;SDS011;62316;48.920;2.342;2024-01-30T09:15:41;20.00;;;18.25;;
73959;SDS011;62316;48.920;2.342;2024-01-30T09:18:06;23.75;;;15.75;;
73959;SDS011;62316;48.920;2.342;2024-01-30T09:20:31;19.50;;;16.25;;
73959;SDS011;62316;48.920;2.342;2024-01-30T09:22:57;23.75;;;19.25;;
73959;SDS011;62316;48.920;2.342;2024-01-30T09:25:22;23.25;;;19.25;;
73959;SDS011;62316;48.920;2.342;2024-01-30T09:27:47;18.50;;;16.75;;
73959;SDS011;62316;48.920;2.342;2024-01-30T09:30:13;17.50;;;16.25;;
73959;SDS011;62316;48.920;2.342;2024-01-30T09:32:39;20.50;;;18.00;;
73959;SDS011;62316;48.920;2.342;2024-01-30T09:35:04;20.00;;;18.75;;
73959;SDS011;62316;48.920;2.342;2024-01-30T09:37:30;18.25;;;18.25;;
73959;SDS011;62316;48.920;2.342;2024-01-30T09:39:55;16.75;;;15.25;;
73959;SDS011;62316;48.920;2.342;2024-01-30T09:42:36;18.75;;;18.00;;
73959;SDS011;62316;48.920;2.342;2024-01-30T09:45:02;14.50;;;14.50;;
73959;SDS011;62316;48.920;2.342;2024-01-30T09:47:30;12.75;;;12.75;;
73959;SDS011;62316;48.920;2.342;2024-01-30T09:49:56;14.00;;;14.00;;
73959;SDS011;62316;48.920;2.342;2024-01-30T09:52:22;16.00;;;14.67;;
73959;SDS011;62316;48.920;2.342;2024-01-30T09:54:48;17.50;;;16.25;;
73959;SDS011;62316;48.920;2.342;2024-01-30T09:57:14;16.50;;;13.75;;
73959;SDS011;62316;48.920;2.342;2024-01-30T09:59:41;15.50;;;14.50;;
73959;SDS011;62316;48.920;2.342;2024-01-30T10:02:06;18.75;;;15.50;;
73959;SDS011;62316;48.920;2.342;2024-01-30T10:04:32;18.00;;;14.75;;
73959;SDS011;62316;48.920;2.342;2024-01-30T10:06:57;13.50;;;13.50;;
73959;SDS011;62316;48.920;2.342;2024-01-30T10:09:24;13.00;;;12.75;;
73959;SDS011;62316;48.920;2.342;2024-01-30T10:11:50;17.00;;;14.25;;
73959;SDS011;62316;48.920;2.342;2024-01-30T10:14:16;11.00;;;9.50;;
73959;SDS011;62316;48.920;2.342;2024-01-30T10:16:41;12.25;;;12.25;;
73959;SDS011;62316;48.920;2.342;2024-01-30T10:19:06;11.25;;;11.00;;
73959;SDS011;62316;48.920;2.342;2024-01-30T10:21:31;14.75;;;12.25;;
73959;SDS011;62316;48.920;2.342;2024-01-30T10:23:57;12.75;;;12.75;;
73959;SDS011;62316;48.920;2.342;2024-01-30T10:26:22;11.00;;;9.67;;
73959;SDS011;62316;48.920;2.342;2024-01-30T10:28:47;13.33;;;13.00;;
73959;SDS011;62316;48.920;2.342;2024-01-30T10:31:16;12.00;;;9.25;;
73959;SDS011;62316;48.920;2.342;2024-01-30T10:33:41;10.00;;;10.00;;
73959;SDS011;62316;48.920;2.342;2024-01-30T10:36:07;13.00;;;9.33;;
73959;SDS011;62316;48.920;2.342;2024-01-30T10:38:32;10.00;;;7.75;;
73959;SDS011;62316;48.920;2.342;2024-01-30T10:41:01;5.33;;;1.67;;
73959;SDS011;62316;48.920;2.342;2024-01-30T10:43:32;16.00;;;10.75;;
73959;SDS011;62316;48.920;2.342;2024-01-30T10:46:33;9.00;;;9.00;;
73959;SDS011;62316;48.920;2.342;2024-01-30T10:48:58;11.33;;;7.33;;
73959;SDS011;62316;48.920;2.342;2024-01-30T10:51:24;16.25;;;14.00;;
73959;SDS011;62316;48.920;2.342;2024-01-30T10:53:51;14.00;;;13.00;;
73959;SDS011;62316;48.920;2.342;2024-01-30T10:56:17;11.67;;;8.00;;
73959;SDS011;62316;48.920;2.342;2024-01-30T10:58:43;13.75;;;9.25;;
73959;SDS011;62316;48.920;2.342;2024-01-30T11:01:08;9.67;;;9.00;;
73959;SDS011;62316;48.920;2.342;2024-01-30T11:03:34;7.00;;;7.00;;
73959;SDS011;62316;48.920;2.342;2024-01-30T11:06:01;14.00;;;12.50;;
73959;SDS011;62316;48.920;2.342;2024-01-30T11:08:27;9.50;;;9.50;;
73959;SDS011;62316;48.920;2.342;2024-01-30T11:10:55;12.67;;;7.33;;
73959;SDS011;62316;48.920;2.342;2024-01-30T11:13:22;13.75;;;13.75;;
73959;SDS011;62316;48.920;2.342;2024-01-30T11:15:47;12.00;;;9.33;;
73959;SDS011;62316;48.920;2.342;2024-01-30T11:18:22;13.00;;;10.00;;
73959;SDS011;62316;48.920;2.342;2024-01-30T11:20:47;16.00;;;12.00;;
73959;SDS011;62316;48.920;2.342;2024-01-30T11:23:17;12.50;;;11.50;;
73959;SDS011;62316;48.920;2.342;2024-01-30T11:25:44;10.00;;;10.00;;
73959;SDS011;62316;48.920;2.342;2024-01-30T11:28:14;13.25;;;11.75;;
73959;SDS011;62316;48.920;2.342;2024-01-30T11:30:40;15.75;;;11.00;;
73959;SDS011;62316;48.920;2.342;2024-01-30T11:35:36;13.67;;;12.67;;
73959;SDS011;62316;48.920;2.342;2024-01-30T11:38:04;6.50;;;6.50;;
73959;SDS011;62316;48.920;2.342;2024-01-30T11:40:31;9.00;;;9.00;;
73959;SDS011;62316;48.920;2.342;2024-01-30T11:42:58;12.75;;;11.75;;
73959;SDS011;62316;48.920;2.342;2024-01-30T11:48:23;8.00;;;6.00;;
73959;SDS011;62316;48.920;2.342;2024-01-30T11:50:53;13.50;;;12.50;;
73959;SDS011;62316;48.920;2.342;2024-01-30T11:53:44;13.75;;;12.25;;
73959;SDS011;62316;48.920;2.342;2024-01-30T11:56:19;12.25;;;11.25;;
73959;SDS011;62316;48.920;2.342;2024-01-30T11:58:50;10.50;;;9.00;;
73959;SDS011;62316;48.920;2.342;2024-01-30T12:01:24;6.75;;;6.75;;
73959;SDS011;62316;48.920;2.342;2024-01-30T12:04:15;11.50;;;8.50;;
73959;SDS011;62316;48.920;2.342;2024-01-30T12:06:58;15.25;;;10.75;;
73959;SDS011;62316;48.920;2.342;2024-01-30T12:09:27;11.75;;;11.75;;
73959;SDS011;62316;48.920;2.342;2024-01-30T12:12:19;6.25;;;6.00;;
73959;SDS011;62316;48.920;2.342;2024-01-30T12:14:56;5.00;;;4.25;;
73959;SDS011;62316;48.920;2.342;2024-01-30T12:17:36;10.75;;;8.50;;
73959;SDS011;62316;48.920;2.342;2024-01-30T12:20:12;5.25;;;5.00;;
73959;SDS011;62316;48.920;2.342;2024-01-30T12:25:45;5.00;;;5.00;;
73959;SDS011;62316;48.920;2.342;2024-01-30T12:28:21;6.50;;;6.00;;
73959;SDS011;62316;48.920;2.342;2024-01-30T12:31:13;6.00;;;5.75;;
73959;SDS011;62316;48.920;2.342;2024-01-30T12:34:03;4.33;;;4.33;;
73959;SDS011;62316;48.920;2.342;2024-01-30T12:36:35;4.00;;;4.00;;
73959;SDS011;62316;48.920;2.342;2024-01-30T12:39:04;5.00;;;5.00;;
73959;SDS011;62316;48.920;2.342;2024-01-30T12:41:46;4.33;;;4.33;;
73959;SDS011;62316;48.920;2.342;2024-01-30T12:44:20;3.33;;;3.33;;
73959;SDS011;62316;48.920;2.342;2024-01-30T12:47:04;5.67;;;5.33;;
73959;SDS011;62316;48.920;2.342;2024-01-30T12:49:44;4.00;;;4.00;;
73959;SDS011;62316;48.920;2.342;2024-01-30T12:52:14;3.67;;;3.67;;
73959;SDS011;62316;48.920;2.342;2024-01-30T12:54:39;3.00;;;3.00;;
73959;SDS011;62316;48.920;2.342;2024-01-30T12:57:05;6.67;;;6.33;;
73959;SDS011;62316;48.920;2.342;2024-01-30T12:59:30;7.00;;;4.67;;
73959;SDS011;62316;48.920;2.342;2024-01-30T13:01:56;3.00;;;3.00;;
73959;SDS011;62316;48.920;2.342;2024-01-30T13:04:21;3.00;;;3.00;;
73959;SDS011;62316;48.920;2.342;2024-01-30T13:06:47;4.00;;;4.00;;
73959;SDS011;62316;48.920;2.342;2024-01-30T13:09:12;3.00;;;3.00;;
73959;SDS011;62316;48.920;2.342;2024-01-30T13:11:37;5.00;;;4.00;;
73959;SDS011;62316;48.920;2.342;2024-01-30T13:14:03;3.00;;;3.00;;
73959;SDS011;62316;48.920;2.342;2024-01-30T13:16:28;1.67;;;1.67;;
73959;SDS011;62316;48.920;2.342;2024-01-30T13:18:53;4.00;;;3.00;;
73959;SDS011;62316;48.920;2.342;2024-01-30T13:21:20;4.67;;;3.33;;
73959;SDS011;62316;48.920;2.342;2024-01-30T13:23:45;7.00;;;2.33;;
73959;SDS011;62316;48.920;2.342;2024-01-30T13:26:10;5.00;;;5.00;;
73959;SDS011;62316;48.920;2.342;2024-01-30T13:28:36;3.00;;;3.00;;
73959;SDS011;62316;48.920;2.342;2024-01-30T13:31:01;3.33;;;2.00;;
73959;SDS011;62316;48.920;2.342;2024-01-30T13:33:27;2.33;;;2.33;;
73959;SDS011;62316;48.920;2.342;2024-01-30T13:35:52;3.33;;;1.33;;
73959;SDS011;62316;48.920;2.342;2024-01-30T13:38:18;5.67;;;2.33;;
73959;SDS011;62316;48.920;2.342;2024-01-30T13:40:43;3.00;;;2.33;;
73959;SDS011;62316;48.920;2.342;2024-01-30T13:43:08;1.33;;;1.33;;
73959;SDS011;62316;48.920;2.342;2024-01-30T13:45:33;1.00;;;1.00;;
73959;SDS011;62316;48.920;2.342;2024-01-30T13:47:59;6.00;;;3.00;;
73959;SDS011;62316;48.920;2.342;2024-01-30T13:50:24;2.00;;;2.00;;
73959;SDS011;62316;48.920;2.342;2024-01-30T13:52:49;2.67;;;2.00;;
73959;SDS011;62316;48.920;2.342;2024-01-30T13:55:14;0.00;;;0.00;;
73959;SDS011;62316;48.920;2.342;2024-01-30T13:57:39;4.00;;;3.00;;
73959;SDS011;62316;48.920;2.342;2024-01-30T14:00:05;2.00;;;2.00;;
73959;SDS011;62316;48.920;2.342;2024-01-30T14:02:34;2.00;;;2.00;;
73959;SDS011;62316;48.920;2.342;2024-01-30T14:05:06;2.00;;;2.00;;
73959;SDS011;62316;48.920;2.342;2024-01-30T14:07:39;7.50;;;5.00;;
73959;SDS011;62316;48.920;2.342;2024-01-30T14:10:05;0.00;;;0.00;;
73959;SDS011;62316;48.920;2.342;2024-01-30T14:12:31;5.00;;;2.00;;
73959;SDS011;62316;48.920;2.342;2024-01-30T14:14:56;4.00;;;0.67;;
73959;SDS011;62316;48.920;2.342;2024-01-30T14:17:22;1.00;;;1.00;;
73959;SDS011;62316;48.920;2.342;2024-01-30T14:19:48;3.00;;;2.00;;
73959;SDS011;62316;48.920;2.342;2024-01-30T14:22:13;1.67;;;1.00;;
73959;SDS011;62316;48.920;2.342;2024-01-30T14:24:38;1.00;;;1.00;;
73959;SDS011;62316;48.920;2.342;2024-01-30T14:27:03;1.00;;;1.00;;
73959;SDS011;62316;48.920;2.342;2024-01-30T14:29:29;3.00;;;1.00;;
73959;SDS011;62316;48.920;2.342;2024-01-30T14:31:54;1.00;;;1.00;;
73959;SDS011;62316;48.920;2.342;2024-01-30T14:34:20;1.00;;;1.00;;
73959;SDS011;62316;48.920;2.342;2024-01-30T14:36:45;1.33;;;0.00;;